sensor_id;sensor_type;location;lat;lon;timestamp;P1;durP1;ratioP1;P2;durP2;ratioP2
77085;SDS011;66014;53.134;18.006;2023-04-24T00:01:08;18.70;;;10.50;;
77085;SDS011;66014;53.134;18.006;2023-04-24T00:03:34;18.80;;;10.00;;
77085;SDS011;66014;53.134;18.006;2023-04-24T00:06:01;18.40;;;11.50;;
77085;SDS011;66014;53.134;18.006;2023-04-24T00:08:31;22.90;;;11.90;;
77085;SDS011;66014;53.134;18.006;2023-04-24T00:10:57;24.60;;;13.30;;
77085;SDS011;66014;53.134;18.006;2023-04-24T00:13:23;27.50;;;16.00;;
77085;SDS011;66014;53.134;18.006;2023-04-24T00:15:49;28.70;;;15.10;;
77085;SDS011;66014;53.134;18.006;2023-04-24T00:18:15;28.00;;;14.90;;
77085;SDS011;66014;53.134;18.006;2023-04-24T00:20:41;28.90;;;14.40;;
77085;SDS011;66014;53.134;18.006;2023-04-24T00:23:09;29.70;;;14.60;;
77085;SDS011;66014;53.134;18.006;2023-04-24T00:25:35;26.60;;;13.90;;
77085;SDS011;66014;53.134;18.006;2023-04-24T00:28:15;24.60;;;14.20;;
77085;SDS011;66014;53.134;18.006;2023-04-24T00:30:41;27.40;;;14.00;;
77085;SDS011;66014;53.134;18.006;2023-04-24T00:33:07;27.40;;;13.80;;
77085;SDS011;66014;53.134;18.006;2023-04-24T00:35:35;24.00;;;11.80;;
77085;SDS011;66014;53.134;18.006;2023-04-24T00:38:00;26.20;;;12.80;;
77085;SDS011;66014;53.134;18.006;2023-04-24T00:40:26;22.50;;;13.00;;
77085;SDS011;66014;53.134;18.006;2023-04-24T00:42:53;24.70;;;12.80;;
77085;SDS011;66014;53.134;18.006;2023-04-24T00:45:19;24.70;;;12.00;;
77085;SDS011;66014;53.134;18.006;2023-04-24T00:47:45;24.20;;;12.80;;
77085;SDS011;66014;53.134;18.006;2023-04-24T00:50:12;22.20;;;12.20;;
77085;SDS011;66014;53.134;18.006;2023-04-24T00:52:42;22.00;;;11.90;;
77085;SDS011;66014;53.134;18.006;2023-04-24T00:55:08;18.90;;;11.00;;
77085;SDS011;66014;53.134;18.006;2023-04-24T00:57:35;19.60;;;11.60;;
77085;SDS011;66014;53.134;18.006;2023-04-24T01:00:01;19.20;;;11.20;;
77085;SDS011;66014;53.134;18.006;2023-04-24T01:02:28;21.90;;;11.90;;
77085;SDS011;66014;53.134;18.006;2023-04-24T01:04:55;17.30;;;11.20;;
77085;SDS011;66014;53.134;18.006;2023-04-24T01:07:21;17.70;;;11.10;;
77085;SDS011;66014;53.134;18.006;2023-04-24T01:09:47;22.00;;;12.60;;
77085;SDS011;66014;53.134;18.006;2023-04-24T01:12:14;21.80;;;13.10;;
77085;SDS011;66014;53.134;18.006;2023-04-24T01:14:40;18.00;;;11.10;;
77085;SDS011;66014;53.134;18.006;2023-04-24T01:17:09;19.20;;;11.50;;
77085;SDS011;66014;53.134;18.006;2023-04-24T01:19:36;20.30;;;12.00;;
77085;SDS011;66014;53.134;18.006;2023-04-24T01:22:15;19.30;;;10.50;;
77085;SDS011;66014;53.134;18.006;2023-04-24T01:24:42;16.70;;;10.70;;
77085;SDS011;66014;53.134;18.006;2023-04-24T01:27:09;15.50;;;10.60;;
77085;SDS011;66014;53.134;18.006;2023-04-24T01:29:36;17.30;;;10.50;;
77085;SDS011;66014;53.134;18.006;2023-04-24T01:32:03;16.90;;;10.90;;
77085;SDS011;66014;53.134;18.006;2023-04-24T01:34:30;17.00;;;10.90;;
77085;SDS011;66014;53.134;18.006;2023-04-24T01:36:57;20.10;;;11.20;;
77085;SDS011;66014;53.134;18.006;2023-04-24T01:39:24;20.80;;;12.40;;
77085;SDS011;66014;53.134;18.006;2023-04-24T01:41:51;18.10;;;12.10;;
77085;SDS011;66014;53.134;18.006;2023-04-24T01:44:18;19.40;;;11.00;;
77085;SDS011;66014;53.134;18.006;2023-04-24T01:46:44;21.40;;;11.30;;
77085;SDS011;66014;53.134;18.006;2023-04-24T01:49:11;17.60;;;11.00;;
77085;SDS011;66014;53.134;18.006;2023-04-24T01:51:38;19.40;;;10.60;;
77085;SDS011;66014;53.134;18.006;2023-04-24T01:54:04;18.20;;;11.50;;
77085;SDS011;66014;53.134;18.006;2023-04-24T01:56:31;19.10;;;11.50;;
77085;SDS011;66014;53.134;18.006;2023-04-24T01:58:59;15.30;;;10.50;;
77085;SDS011;66014;53.134;18.006;2023-04-24T02:01:26;19.80;;;11.50;;
77085;SDS011;66014;53.134;18.006;2023-04-24T02:03:51;19.40;;;14.00;;
77085;SDS011;66014;53.134;18.006;2023-04-24T02:06:23;19.80;;;12.70;;
77085;SDS011;66014;53.134;18.006;2023-04-24T02:08:49;19.60;;;12.60;;
77085;SDS011;66014;53.134;18.006;2023-04-24T02:11:15;20.20;;;12.10;;
77085;SDS011;66014;53.134;18.006;2023-04-24T02:13:42;21.10;;;13.30;;
77085;SDS011;66014;53.134;18.006;2023-04-24T02:16:08;21.60;;;13.20;;
77085;SDS011;66014;53.134;18.006;2023-04-24T02:18:35;22.60;;;14.20;;
77085;SDS011;66014;53.134;18.006;2023-04-24T02:21:02;20.40;;;13.50;;
77085;SDS011;66014;53.134;18.006;2023-04-24T02:23:28;21.50;;;13.20;;
77085;SDS011;66014;53.134;18.006;2023-04-24T02:25:54;19.60;;;13.40;;
77085;SDS011;66014;53.134;18.006;2023-04-24T02:28:19;19.80;;;12.70;;
77085;SDS011;66014;53.134;18.006;2023-04-24T02:30:45;19.90;;;13.40;;
77085;SDS011;66014;53.134;18.006;2023-04-24T02:33:11;21.10;;;13.20;;
77085;SDS011;66014;53.134;18.006;2023-04-24T02:35:37;18.30;;;12.70;;
77085;SDS011;66014;53.134;18.006;2023-04-24T02:38:03;19.60;;;13.20;;
77085;SDS011;66014;53.134;18.006;2023-04-24T02:40:29;20.00;;;13.00;;
77085;SDS011;66014;53.134;18.006;2023-04-24T02:42:55;19.00;;;12.40;;
77085;SDS011;66014;53.134;18.006;2023-04-24T02:45:22;19.10;;;13.00;;
77085;SDS011;66014;53.134;18.006;2023-04-24T02:47:48;20.00;;;13.10;;
77085;SDS011;66014;53.134;18.006;2023-04-24T02:50:14;17.80;;;12.70;;
77085;SDS011;66014;53.134;18.006;2023-04-24T02:52:49;18.80;;;13.20;;
77085;SDS011;66014;53.134;18.006;2023-04-24T02:55:18;20.80;;;13.90;;
77085;SDS011;66014;53.134;18.006;2023-04-24T02:57:44;25.10;;;12.90;;
77085;SDS011;66014;53.134;18.006;2023-04-24T03:00:10;19.90;;;13.90;;
77085;SDS011;66014;53.134;18.006;2023-04-24T03:02:37;22.00;;;13.60;;
77085;SDS011;66014;53.134;18.006;2023-04-24T03:05:10;21.00;;;13.60;;
77085;SDS011;66014;53.134;18.006;2023-04-24T03:07:37;19.20;;;12.90;;
77085;SDS011;66014;53.134;18.006;2023-04-24T03:10:03;16.60;;;11.20;;
77085;SDS011;66014;53.134;18.006;2023-04-24T03:12:31;20.30;;;13.00;;
77085;SDS011;66014;53.134;18.006;2023-04-24T03:14:57;19.90;;;13.40;;
77085;SDS011;66014;53.134;18.006;2023-04-24T03:17:22;22.00;;;14.40;;
77085;SDS011;66014;53.134;18.006;2023-04-24T03:19:48;22.70;;;12.80;;
77085;SDS011;66014;53.134;18.006;2023-04-24T03:22:14;19.90;;;12.00;;
77085;SDS011;66014;53.134;18.006;2023-04-24T03:24:40;18.40;;;12.70;;
77085;SDS011;66014;53.134;18.006;2023-04-24T03:27:06;19.60;;;10.70;;
77085;SDS011;66014;53.134;18.006;2023-04-24T03:29:32;21.50;;;12.60;;
77085;SDS011;66014;53.134;18.006;2023-04-24T03:31:58;20.50;;;13.40;;
77085;SDS011;66014;53.134;18.006;2023-04-24T03:34:23;19.90;;;12.20;;
77085;SDS011;66014;53.134;18.006;2023-04-24T03:36:49;18.20;;;10.30;;
77085;SDS011;66014;53.134;18.006;2023-04-24T03:39:18;19.40;;;10.30;;
77085;SDS011;66014;53.134;18.006;2023-04-24T03:41:44;19.00;;;11.10;;
77085;SDS011;66014;53.134;18.006;2023-04-24T03:44:09;19.60;;;11.40;;
77085;SDS011;66014;53.134;18.006;2023-04-24T03:46:35;16.10;;;10.60;;
77085;SDS011;66014;53.134;18.006;2023-04-24T03:49:01;14.70;;;8.60;;
77085;SDS011;66014;53.134;18.006;2023-04-24T03:51:27;16.70;;;11.40;;
77085;SDS011;66014;53.134;18.006;2023-04-24T03:57:01;12.00;;;7.70;;
77085;SDS011;66014;53.134;18.006;2023-04-24T03:59:43;14.40;;;8.70;;
77085;SDS011;66014;53.134;18.006;2023-04-24T04:02:15;15.10;;;9.10;;
77085;SDS011;66014;53.134;18.006;2023-04-24T04:04:40;11.90;;;7.70;;
77085;SDS011;66014;53.134;18.006;2023-04-24T04:07:12;14.90;;;8.20;;
77085;SDS011;66014;53.134;18.006;2023-04-24T04:09:38;15.40;;;8.40;;
77085;SDS011;66014;53.134;18.006;2023-04-24T04:12:04;15.70;;;9.80;;
77085;SDS011;66014;53.134;18.006;2023-04-24T04:14:30;21.70;;;11.20;;
77085;SDS011;66014;53.134;18.006;2023-04-24T04:16:56;19.30;;;10.90;;
77085;SDS011;66014;53.134;18.006;2023-04-24T04:19:22;16.60;;;10.20;;
77085;SDS011;66014;53.134;18.006;2023-04-24T04:21:47;15.10;;;10.00;;
77085;SDS011;66014;53.134;18.006;2023-04-24T04:24:19;19.50;;;10.40;;
77085;SDS011;66014;53.134;18.006;2023-04-24T04:26:46;15.70;;;9.60;;
77085;SDS011;66014;53.134;18.006;2023-04-24T04:29:13;17.80;;;11.80;;
77085;SDS011;66014;53.134;18.006;2023-04-24T04:31:39;17.30;;;11.70;;
77085;SDS011;66014;53.134;18.006;2023-04-24T04:34:05;19.40;;;12.60;;
77085;SDS011;66014;53.134;18.006;2023-04-24T04:36:31;18.40;;;11.90;;
77085;SDS011;66014;53.134;18.006;2023-04-24T04:38:58;15.50;;;10.10;;
77085;SDS011;66014;53.134;18.006;2023-04-24T04:41:24;20.10;;;11.60;;
77085;SDS011;66014;53.134;18.006;2023-04-24T04:43:50;18.00;;;11.50;;
77085;SDS011;66014;53.134;18.006;2023-04-24T04:46:18;19.10;;;11.20;;
77085;SDS011;66014;53.134;18.006;2023-04-24T04:48:44;21.40;;;11.10;;
77085;SDS011;66014;53.134;18.006;2023-04-24T04:51:10;18.80;;;11.00;;
77085;SDS011;66014;53.134;18.006;2023-04-24T04:53:36;19.70;;;11.10;;
77085;SDS011;66014;53.134;18.006;2023-04-24T04:56:02;19.50;;;10.10;;
77085;SDS011;66014;53.134;18.006;2023-04-24T04:58:28;19.60;;;11.10;;
77085;SDS011;66014;53.134;18.006;2023-04-24T05:00:55;18.90;;;11.50;;
77085;SDS011;66014;53.134;18.006;2023-04-24T05:03:22;17.80;;;11.40;;
77085;SDS011;66014;53.134;18.006;2023-04-24T05:05:48;20.20;;;11.70;;
77085;SDS011;66014;53.134;18.006;2023-04-24T05:08:14;18.50;;;12.10;;
77085;SDS011;66014;53.134;18.006;2023-04-24T05:10:41;21.60;;;12.60;;
77085;SDS011;66014;53.134;18.006;2023-04-24T05:13:07;19.80;;;12.70;;
77085;SDS011;66014;53.134;18.006;2023-04-24T05:15:37;19.60;;;12.30;;
77085;SDS011;66014;53.134;18.006;2023-04-24T05:18:03;19.40;;;12.60;;
77085;SDS011;66014;53.134;18.006;2023-04-24T05:20:29;18.50;;;12.80;;
77085;SDS011;66014;53.134;18.006;2023-04-24T05:22:55;22.20;;;13.30;;
77085;SDS011;66014;53.134;18.006;2023-04-24T05:25:21;25.10;;;13.80;;
77085;SDS011;66014;53.134;18.006;2023-04-24T05:27:48;24.40;;;14.50;;
77085;SDS011;66014;53.134;18.006;2023-04-24T05:30:14;22.30;;;14.00;;
77085;SDS011;66014;53.134;18.006;2023-04-24T05:32:41;23.60;;;14.50;;
77085;SDS011;66014;53.134;18.006;2023-04-24T05:35:09;26.70;;;14.40;;
77085;SDS011;66014;53.134;18.006;2023-04-24T05:37:35;22.30;;;13.30;;
77085;SDS011;66014;53.134;18.006;2023-04-24T05:40:01;19.30;;;13.50;;
77085;SDS011;66014;53.134;18.006;2023-04-24T05:42:30;21.40;;;13.30;;
77085;SDS011;66014;53.134;18.006;2023-04-24T05:44:55;24.10;;;12.80;;
77085;SDS011;66014;53.134;18.006;2023-04-24T05:47:21;19.00;;;12.30;;
77085;SDS011;66014;53.134;18.006;2023-04-24T05:49:47;20.30;;;12.50;;
77085;SDS011;66014;53.134;18.006;2023-04-24T05:52:14;20.00;;;12.40;;
77085;SDS011;66014;53.134;18.006;2023-04-24T05:54:39;19.90;;;12.50;;
77085;SDS011;66014;53.134;18.006;2023-04-24T05:57:05;16.30;;;12.20;;
77085;SDS011;66014;53.134;18.006;2023-04-24T05:59:33;18.80;;;12.50;;
77085;SDS011;66014;53.134;18.006;2023-04-24T06:02:04;22.10;;;13.90;;
77085;SDS011;66014;53.134;18.006;2023-04-24T06:04:30;22.20;;;12.80;;
77085;SDS011;66014;53.134;18.006;2023-04-24T06:06:56;20.50;;;12.70;;
77085;SDS011;66014;53.134;18.006;2023-04-24T06:09:22;23.70;;;13.60;;
77085;SDS011;66014;53.134;18.006;2023-04-24T06:11:49;22.20;;;13.30;;
77085;SDS011;66014;53.134;18.006;2023-04-24T06:14:18;45.10;;;23.60;;
77085;SDS011;66014;53.134;18.006;2023-04-24T06:16:44;20.60;;;13.70;;
77085;SDS011;66014;53.134;18.006;2023-04-24T06:19:10;29.70;;;17.80;;
77085;SDS011;66014;53.134;18.006;2023-04-24T06:21:36;30.80;;;18.30;;
77085;SDS011;66014;53.134;18.006;2023-04-24T06:24:03;20.40;;;13.80;;
77085;SDS011;66014;53.134;18.006;2023-04-24T06:26:30;30.00;;;18.90;;
77085;SDS011;66014;53.134;18.006;2023-04-24T06:28:56;24.50;;;15.90;;
77085;SDS011;66014;53.134;18.006;2023-04-24T06:31:24;21.30;;;14.80;;
77085;SDS011;66014;53.134;18.006;2023-04-24T06:33:49;19.60;;;13.20;;
77085;SDS011;66014;53.134;18.006;2023-04-24T06:36:15;17.50;;;11.60;;
77085;SDS011;66014;53.134;18.006;2023-04-24T06:38:42;20.20;;;13.00;;
77085;SDS011;66014;53.134;18.006;2023-04-24T06:41:07;16.30;;;11.40;;
77085;SDS011;66014;53.134;18.006;2023-04-24T06:43:33;20.10;;;10.50;;
77085;SDS011;66014;53.134;18.006;2023-04-24T06:45:59;15.20;;;10.30;;
77085;SDS011;66014;53.134;18.006;2023-04-24T06:48:25;15.30;;;9.90;;
77085;SDS011;66014;53.134;18.006;2023-04-24T06:50:52;13.90;;;8.90;;
77085;SDS011;66014;53.134;18.006;2023-04-24T06:53:18;16.90;;;9.70;;
77085;SDS011;66014;53.134;18.006;2023-04-24T06:55:44;18.10;;;9.90;;
77085;SDS011;66014;53.134;18.006;2023-04-24T06:58:13;16.80;;;9.80;;
77085;SDS011;66014;53.134;18.006;2023-04-24T07:00:40;14.90;;;8.80;;
77085;SDS011;66014;53.134;18.006;2023-04-24T07:03:06;12.70;;;8.10;;
77085;SDS011;66014;53.134;18.006;2023-04-24T07:05:32;21.50;;;10.20;;
77085;SDS011;66014;53.134;18.006;2023-04-24T07:08:00;21.90;;;12.70;;
77085;SDS011;66014;53.134;18.006;2023-04-24T07:10:27;18.30;;;11.30;;
77085;SDS011;66014;53.134;18.006;2023-04-24T07:12:54;14.10;;;9.70;;
77085;SDS011;66014;53.134;18.006;2023-04-24T07:15:23;12.50;;;7.30;;
77085;SDS011;66014;53.134;18.006;2023-04-24T07:17:49;13.50;;;8.10;;
77085;SDS011;66014;53.134;18.006;2023-04-24T07:20:15;13.00;;;7.30;;
77085;SDS011;66014;53.134;18.006;2023-04-24T07:22:41;12.80;;;7.70;;
77085;SDS011;66014;53.134;18.006;2023-04-24T07:25:07;9.90;;;6.20;;
77085;SDS011;66014;53.134;18.006;2023-04-24T07:27:34;11.40;;;6.80;;
77085;SDS011;66014;53.134;18.006;2023-04-24T07:30:02;9.70;;;6.20;;
77085;SDS011;66014;53.134;18.006;2023-04-24T07:32:29;10.60;;;7.60;;
77085;SDS011;66014;53.134;18.006;2023-04-24T07:34:55;12.50;;;7.30;;
77085;SDS011;66014;53.134;18.006;2023-04-24T07:37:21;11.60;;;6.80;;
77085;SDS011;66014;53.134;18.006;2023-04-24T07:39:48;11.80;;;6.70;;
77085;SDS011;66014;53.134;18.006;2023-04-24T07:42:14;9.80;;;6.80;;
77085;SDS011;66014;53.134;18.006;2023-04-24T07:44:40;11.00;;;5.90;;
77085;SDS011;66014;53.134;18.006;2023-04-24T07:47:06;10.40;;;6.40;;
77085;SDS011;66014;53.134;18.006;2023-04-24T07:49:31;12.80;;;7.30;;
77085;SDS011;66014;53.134;18.006;2023-04-24T07:51:59;11.60;;;6.80;;
77085;SDS011;66014;53.134;18.006;2023-04-24T07:54:27;9.70;;;6.40;;
77085;SDS011;66014;53.134;18.006;2023-04-24T07:56:54;10.30;;;6.90;;
77085;SDS011;66014;53.134;18.006;2023-04-24T07:59:19;11.30;;;6.80;;
77085;SDS011;66014;53.134;18.006;2023-04-24T08:01:45;8.60;;;5.60;;
77085;SDS011;66014;53.134;18.006;2023-04-24T08:04:11;10.70;;;5.60;;
77085;SDS011;66014;53.134;18.006;2023-04-24T08:06:37;11.00;;;7.00;;
77085;SDS011;66014;53.134;18.006;2023-04-24T08:09:03;13.80;;;7.30;;
77085;SDS011;66014;53.134;18.006;2023-04-24T08:11:31;11.60;;;6.40;;
77085;SDS011;66014;53.134;18.006;2023-04-24T08:13:57;8.20;;;5.30;;
77085;SDS011;66014;53.134;18.006;2023-04-24T08:16:24;10.20;;;6.00;;
77085;SDS011;66014;53.134;18.006;2023-04-24T08:18:50;11.50;;;5.30;;
77085;SDS011;66014;53.134;18.006;2023-04-24T08:21:17;9.20;;;6.00;;
77085;SDS011;66014;53.134;18.006;2023-04-24T08:23:44;9.30;;;5.50;;
77085;SDS011;66014;53.134;18.006;2023-04-24T08:26:11;7.40;;;5.30;;
77085;SDS011;66014;53.134;18.006;2023-04-24T08:28:38;9.40;;;5.50;;
77085;SDS011;66014;53.134;18.006;2023-04-24T08:31:05;9.20;;;5.60;;
77085;SDS011;66014;53.134;18.006;2023-04-24T08:33:35;10.50;;;5.70;;
77085;SDS011;66014;53.134;18.006;2023-04-24T08:39:19;8.30;;;5.40;;
77085;SDS011;66014;53.134;18.006;2023-04-24T08:41:48;7.10;;;4.10;;
77085;SDS011;66014;53.134;18.006;2023-04-24T08:44:58;6.50;;;4.40;;
77085;SDS011;66014;53.134;18.006;2023-04-24T08:47:25;8.20;;;5.30;;
77085;SDS011;66014;53.134;18.006;2023-04-24T08:49:53;11.00;;;6.60;;
77085;SDS011;66014;53.134;18.006;2023-04-24T08:52:22;8.00;;;4.60;;
77085;SDS011;66014;53.134;18.006;2023-04-24T08:54:49;9.90;;;5.20;;
77085;SDS011;66014;53.134;18.006;2023-04-24T08:57:15;6.90;;;5.40;;
77085;SDS011;66014;53.134;18.006;2023-04-24T08:59:42;7.70;;;4.70;;
77085;SDS011;66014;53.134;18.006;2023-04-24T09:02:10;7.70;;;5.20;;
77085;SDS011;66014;53.134;18.006;2023-04-24T09:04:37;9.10;;;5.10;;
77085;SDS011;66014;53.134;18.006;2023-04-24T09:07:04;9.30;;;5.40;;
77085;SDS011;66014;53.134;18.006;2023-04-24T09:09:35;10.80;;;6.10;;
77085;SDS011;66014;53.134;18.006;2023-04-24T09:12:04;10.00;;;5.40;;
77085;SDS011;66014;53.134;18.006;2023-04-24T09:14:36;10.60;;;6.10;;
77085;SDS011;66014;53.134;18.006;2023-04-24T09:17:08;9.40;;;5.70;;
77085;SDS011;66014;53.134;18.006;2023-04-24T09:19:40;8.80;;;6.10;;
77085;SDS011;66014;53.134;18.006;2023-04-24T09:22:07;9.80;;;5.70;;
77085;SDS011;66014;53.134;18.006;2023-04-24T09:24:35;8.50;;;5.30;;
77085;SDS011;66014;53.134;18.006;2023-04-24T09:27:01;8.90;;;5.70;;
77085;SDS011;66014;53.134;18.006;2023-04-24T09:29:27;11.10;;;6.80;;
77085;SDS011;66014;53.134;18.006;2023-04-24T09:31:54;10.60;;;6.90;;
77085;SDS011;66014;53.134;18.006;2023-04-24T09:34:23;17.70;;;7.80;;
77085;SDS011;66014;53.134;18.006;2023-04-24T09:36:51;7.70;;;5.60;;
77085;SDS011;66014;53.134;18.006;2023-04-24T09:41:48;8.30;;;5.80;;
77085;SDS011;66014;53.134;18.006;2023-04-24T09:44:23;11.00;;;6.70;;
77085;SDS011;66014;53.134;18.006;2023-04-24T09:46:51;8.70;;;5.50;;
77085;SDS011;66014;53.134;18.006;2023-04-24T09:49:22;6.80;;;4.70;;
77085;SDS011;66014;53.134;18.006;2023-04-24T09:51:50;9.70;;;5.50;;
77085;SDS011;66014;53.134;18.006;2023-04-24T09:54:16;10.50;;;5.60;;
77085;SDS011;66014;53.134;18.006;2023-04-24T09:56:44;9.60;;;5.90;;
77085;SDS011;66014;53.134;18.006;2023-04-24T09:59:12;6.60;;;4.80;;
77085;SDS011;66014;53.134;18.006;2023-04-24T10:01:42;8.70;;;5.40;;
77085;SDS011;66014;53.134;18.006;2023-04-24T10:04:19;8.90;;;6.10;;
77085;SDS011;66014;53.134;18.006;2023-04-24T10:06:46;6.00;;;4.10;;
77085;SDS011;66014;53.134;18.006;2023-04-24T10:09:14;7.30;;;6.00;;
77085;SDS011;66014;53.134;18.006;2023-04-24T10:11:42;7.40;;;5.60;;
77085;SDS011;66014;53.134;18.006;2023-04-24T10:14:13;6.50;;;4.70;;
77085;SDS011;66014;53.134;18.006;2023-04-24T10:16:43;8.70;;;5.30;;
77085;SDS011;66014;53.134;18.006;2023-04-24T10:19:10;9.00;;;5.30;;
77085;SDS011;66014;53.134;18.006;2023-04-24T10:21:39;10.40;;;5.30;;
77085;SDS011;66014;53.134;18.006;2023-04-24T10:24:08;6.30;;;4.50;;
77085;SDS011;66014;53.134;18.006;2023-04-24T10:26:35;7.30;;;4.50;;
77085;SDS011;66014;53.134;18.006;2023-04-24T10:29:02;8.80;;;5.50;;
77085;SDS011;66014;53.134;18.006;2023-04-24T10:31:30;8.00;;;5.30;;
77085;SDS011;66014;53.134;18.006;2023-04-24T10:33:58;7.40;;;5.20;;
77085;SDS011;66014;53.134;18.006;2023-04-24T10:36:26;7.70;;;4.90;;
77085;SDS011;66014;53.134;18.006;2023-04-24T10:38:54;10.90;;;4.60;;
77085;SDS011;66014;53.134;18.006;2023-04-24T10:41:23;8.80;;;5.10;;
77085;SDS011;66014;53.134;18.006;2023-04-24T10:46:44;9.50;;;5.80;;
77085;SDS011;66014;53.134;18.006;2023-04-24T10:49:11;6.40;;;4.30;;
77085;SDS011;66014;53.134;18.006;2023-04-24T10:51:53;8.50;;;4.30;;
77085;SDS011;66014;53.134;18.006;2023-04-24T10:54:33;8.00;;;4.80;;
77085;SDS011;66014;53.134;18.006;2023-04-24T10:59:46;8.50;;;5.40;;
77085;SDS011;66014;53.134;18.006;2023-04-24T11:02:16;5.80;;;3.90;;
77085;SDS011;66014;53.134;18.006;2023-04-24T11:04:43;7.10;;;4.70;;
77085;SDS011;66014;53.134;18.006;2023-04-24T11:07:10;8.10;;;5.70;;
77085;SDS011;66014;53.134;18.006;2023-04-24T11:09:37;9.30;;;5.50;;
77085;SDS011;66014;53.134;18.006;2023-04-24T11:12:06;8.80;;;6.40;;
77085;SDS011;66014;53.134;18.006;2023-04-24T11:17:35;7.20;;;5.30;;
77085;SDS011;66014;53.134;18.006;2023-04-24T11:20:07;8.10;;;5.80;;
77085;SDS011;66014;53.134;18.006;2023-04-24T11:22:35;11.80;;;8.30;;
77085;SDS011;66014;53.134;18.006;2023-04-24T11:25:02;13.70;;;7.80;;
77085;SDS011;66014;53.134;18.006;2023-04-24T11:27:30;12.20;;;7.10;;
77085;SDS011;66014;53.134;18.006;2023-04-24T11:30:02;8.90;;;7.30;;
77085;SDS011;66014;53.134;18.006;2023-04-24T11:37:26;8.30;;;6.90;;
77085;SDS011;66014;53.134;18.006;2023-04-24T11:39:54;10.00;;;7.30;;
77085;SDS011;66014;53.134;18.006;2023-04-24T11:42:21;9.10;;;6.20;;
77085;SDS011;66014;53.134;18.006;2023-04-24T11:44:52;13.50;;;6.60;;
77085;SDS011;66014;53.134;18.006;2023-04-24T11:47:19;9.10;;;6.20;;
77085;SDS011;66014;53.134;18.006;2023-04-24T11:49:46;7.40;;;6.10;;
77085;SDS011;66014;53.134;18.006;2023-04-24T11:52:15;7.90;;;5.70;;
77085;SDS011;66014;53.134;18.006;2023-04-24T11:54:46;8.50;;;6.90;;
77085;SDS011;66014;53.134;18.006;2023-04-24T11:57:13;10.80;;;7.10;;
77085;SDS011;66014;53.134;18.006;2023-04-24T11:59:39;22.80;;;15.50;;
77085;SDS011;66014;53.134;18.006;2023-04-24T12:02:06;18.30;;;16.60;;
77085;SDS011;66014;53.134;18.006;2023-04-24T12:04:38;13.40;;;11.90;;
77085;SDS011;66014;53.134;18.006;2023-04-24T12:07:06;9.50;;;8.00;;
77085;SDS011;66014;53.134;18.006;2023-04-24T12:09:47;8.60;;;5.80;;
77085;SDS011;66014;53.134;18.006;2023-04-24T12:12:15;10.80;;;7.70;;
77085;SDS011;66014;53.134;18.006;2023-04-24T12:14:43;6.70;;;4.00;;
77085;SDS011;66014;53.134;18.006;2023-04-24T12:17:14;6.60;;;4.20;;
77085;SDS011;66014;53.134;18.006;2023-04-24T12:19:49;5.70;;;3.80;;
77085;SDS011;66014;53.134;18.006;2023-04-24T12:22:16;8.80;;;5.60;;
77085;SDS011;66014;53.134;18.006;2023-04-24T12:24:58;6.30;;;4.20;;
77085;SDS011;66014;53.134;18.006;2023-04-24T12:27:31;6.80;;;4.80;;
77085;SDS011;66014;53.134;18.006;2023-04-24T12:29:58;8.70;;;5.50;;
77085;SDS011;66014;53.134;18.006;2023-04-24T12:32:26;9.50;;;5.80;;
77085;SDS011;66014;53.134;18.006;2023-04-24T12:34:52;9.50;;;5.90;;
77085;SDS011;66014;53.134;18.006;2023-04-24T12:37:19;8.30;;;4.80;;
77085;SDS011;66014;53.134;18.006;2023-04-24T12:42:32;7.20;;;4.70;;
77085;SDS011;66014;53.134;18.006;2023-04-24T12:45:00;5.50;;;4.60;;
77085;SDS011;66014;53.134;18.006;2023-04-24T12:47:29;11.20;;;5.40;;
77085;SDS011;66014;53.134;18.006;2023-04-24T12:49:55;6.90;;;4.40;;
77085;SDS011;66014;53.134;18.006;2023-04-24T12:52:22;8.20;;;4.70;;
77085;SDS011;66014;53.134;18.006;2023-04-24T12:54:56;5.20;;;3.70;;
77085;SDS011;66014;53.134;18.006;2023-04-24T12:57:24;6.60;;;4.70;;
77085;SDS011;66014;53.134;18.006;2023-04-24T12:59:52;8.10;;;4.50;;
77085;SDS011;66014;53.134;18.006;2023-04-24T13:02:22;6.80;;;3.70;;
77085;SDS011;66014;53.134;18.006;2023-04-24T13:04:49;9.30;;;5.70;;
77085;SDS011;66014;53.134;18.006;2023-04-24T13:07:15;9.80;;;5.90;;
77085;SDS011;66014;53.134;18.006;2023-04-24T13:09:42;8.50;;;6.20;;
77085;SDS011;66014;53.134;18.006;2023-04-24T13:12:09;11.30;;;6.30;;
77085;SDS011;66014;53.134;18.006;2023-04-24T13:14:36;9.70;;;7.50;;
77085;SDS011;66014;53.134;18.006;2023-04-24T13:17:03;9.10;;;6.00;;
77085;SDS011;66014;53.134;18.006;2023-04-24T13:19:30;10.30;;;5.90;;
77085;SDS011;66014;53.134;18.006;2023-04-24T13:22:02;8.20;;;5.00;;
77085;SDS011;66014;53.134;18.006;2023-04-24T13:24:29;9.10;;;5.40;;
77085;SDS011;66014;53.134;18.006;2023-04-24T13:26:57;9.90;;;5.70;;
77085;SDS011;66014;53.134;18.006;2023-04-24T13:29:23;8.40;;;6.00;;
77085;SDS011;66014;53.134;18.006;2023-04-24T13:31:50;7.00;;;5.40;;
77085;SDS011;66014;53.134;18.006;2023-04-24T13:34:17;8.10;;;5.30;;
77085;SDS011;66014;53.134;18.006;2023-04-24T13:36:43;9.30;;;4.90;;
77085;SDS011;66014;53.134;18.006;2023-04-24T13:39:09;5.90;;;4.60;;
77085;SDS011;66014;53.134;18.006;2023-04-24T13:41:36;10.00;;;5.10;;
77085;SDS011;66014;53.134;18.006;2023-04-24T13:44:02;8.50;;;4.50;;
77085;SDS011;66014;53.134;18.006;2023-04-24T13:46:30;7.40;;;5.50;;
77085;SDS011;66014;53.134;18.006;2023-04-24T13:48:56;8.80;;;5.80;;
77085;SDS011;66014;53.134;18.006;2023-04-24T13:51:24;8.80;;;5.50;;
77085;SDS011;66014;53.134;18.006;2023-04-24T13:53:53;8.70;;;4.30;;
77085;SDS011;66014;53.134;18.006;2023-04-24T13:56:19;4.40;;;3.10;;
77085;SDS011;66014;53.134;18.006;2023-04-24T13:58:45;4.80;;;3.40;;
77085;SDS011;66014;53.134;18.006;2023-04-24T14:01:12;7.20;;;4.50;;
77085;SDS011;66014;53.134;18.006;2023-04-24T14:03:38;4.80;;;3.30;;
77085;SDS011;66014;53.134;18.006;2023-04-24T14:06:04;5.40;;;3.90;;
77085;SDS011;66014;53.134;18.006;2023-04-24T14:08:32;7.00;;;4.80;;
77085;SDS011;66014;53.134;18.006;2023-04-24T14:10:59;8.40;;;5.40;;
77085;SDS011;66014;53.134;18.006;2023-04-24T14:13:25;6.20;;;4.60;;
77085;SDS011;66014;53.134;18.006;2023-04-24T14:15:51;7.80;;;5.60;;
77085;SDS011;66014;53.134;18.006;2023-04-24T14:18:18;7.00;;;4.70;;
77085;SDS011;66014;53.134;18.006;2023-04-24T14:20:44;7.50;;;5.50;;
77085;SDS011;66014;53.134;18.006;2023-04-24T14:23:13;8.40;;;5.70;;
77085;SDS011;66014;53.134;18.006;2023-04-24T14:25:39;9.70;;;5.70;;
77085;SDS011;66014;53.134;18.006;2023-04-24T14:28:05;9.80;;;5.40;;
77085;SDS011;66014;53.134;18.006;2023-04-24T14:30:31;7.10;;;5.10;;
77085;SDS011;66014;53.134;18.006;2023-04-24T14:32:57;8.80;;;5.20;;
77085;SDS011;66014;53.134;18.006;2023-04-24T14:35:23;9.70;;;5.80;;
77085;SDS011;66014;53.134;18.006;2023-04-24T14:37:49;9.30;;;4.80;;
77085;SDS011;66014;53.134;18.006;2023-04-24T14:40:15;7.10;;;4.30;;
77085;SDS011;66014;53.134;18.006;2023-04-24T14:42:41;6.40;;;3.70;;
77085;SDS011;66014;53.134;18.006;2023-04-24T14:45:07;8.20;;;4.10;;
77085;SDS011;66014;53.134;18.006;2023-04-24T14:47:33;3.40;;;2.60;;